Time,TemperatureF,DewpointF,PressureIn,WindDirection,WindDirectionDegrees,WindSpeedMPH,WindSpeedGustMPH,Humidity,HourlyPrecipIn,Conditions,Clouds,dailyrainin,SoftwareType,DateUTC
2013-06-27 00:01:00,72.0,71.0,29.80,West,281,0.0,0.0,97,0.00,,,0.22,,2013-06-27 04:01:00,
2013-06-27 00:11:00,72.0,71.0,29.80,West,281,0.0,0.0,97,0.00,,,0.22,,2013-06-27 04:11:00,
2013-06-27 00:33:00,72.0,71.0,29.80,West,281,0.0,0.0,97,0.00,,,0.22,,2013-06-27 04:33:00,
2013-06-27 00:42:00,72.0,71.0,29.80,West,281,0.0,0.0,97,0.00,,,0.22,,2013-06-27 04:42:00,
2013-06-27 00:53:00,72.0,71.0,29.80,West,281,0.0,0.0,97,0.00,,,0.22,,2013-06-27 04:53:00,
2013-06-27 01:02:00,71.0,70.0,29.80,West,281,0.0,0.0,97,0.00,,,0.17,,2013-06-27 05:02:00,
2013-06-27 01:12:00,71.0,70.0,29.80,West,281,0.0,0.0,97,0.00,,,0.17,,2013-06-27 05:12:00,
2013-06-27 01:22:00,71.0,70.0,29.80,West,281,0.0,0.0,98,0.00,,,0.17,,2013-06-27 05:22:00,
2013-06-27 01:32:00,71.0,70.0,29.80,West,281,0.0,0.0,98,0.00,,,0.17,,2013-06-27 05:32:00,
2013-06-27 01:42:00,71.0,70.0,29.79,West,281,0.0,0.0,98,0.00,,,0.17,,2013-06-27 05:42:00,
2013-06-27 01:53:00,71.0,70.0,29.79,West,281,0.0,0.0,98,0.00,,,0.17,,2013-06-27 05:53:00,
2013-06-27 02:02:00,70.0,69.0,29.78,West,281,0.0,0.0,98,0.00,,,0.17,,2013-06-27 06:02:00,
2013-06-27 02:12:00,70.0,69.0,29.78,West,281,0.0,0.0,98,0.00,,,0.17,,2013-06-27 06:12:00,
2013-06-27 02:34:00,70.0,69.0,29.78,West,281,0.0,0.0,98,0.00,,,0.17,,2013-06-27 06:34:00,
2013-06-27 02:43:00,70.0,69.0,29.78,West,281,0.0,0.0,98,0.00,,,0.17,,2013-06-27 06:43:00,
2013-06-27 02:53:00,70.0,69.0,29.78,West,281,0.0,0.0,98,0.00,,,0.17,,2013-06-27 06:53:00,
2013-06-27 03:02:00,70.0,69.0,29.78,West,281,0.0,0.0,98,0.00,,,0.17,,2013-06-27 07:02:00,
2013-06-27 03:12:00,70.0,69.0,29.78,West,281,0.0,0.0,98,0.00,,,0.17,,2013-06-27 07:12:00,
2013-06-27 03:22:00,69.0,68.0,29.78,West,281,0.0,0.0,98,0.00,,,0.17,,2013-06-27 07:22:00,
2013-06-27 03:33:00,69.0,68.0,29.78,West,281,0.0,0.0,98,0.00,,,0.17,,2013-06-27 07:33:00,
2013-06-27 03:42:00,69.0,68.0,29.77,West,281,0.0,0.0,98,0.00,,,0.17,,2013-06-27 07:42:00,
2013-06-27 03:52:00,69.0,68.0,29.77,West,281,0.0,0.0,98,0.00,,,0.17,,2013-06-27 07:52:00,
2013-06-27 04:01:00,69.0,68.0,29.77,West,281,0.0,0.0,98,0.00,,,0.17,,2013-06-27 08:01:00,
2013-06-27 04:11:00,69.0,68.0,29.77,West,281,0.0,0.0,98,0.00,,,0.17,,2013-06-27 08:11:00,
2013-06-27 04:34:00,69.0,68.0,29.77,West,281,0.0,0.0,98,0.00,,,0.17,,2013-06-27 08:34:00,
2013-06-27 04:43:00,69.0,68.0,29.77,West,281,0.0,0.0,98,0.00,,,0.17,,2013-06-27 08:43:00,
2013-06-27 04:52:00,69.0,69.0,29.77,West,281,0.0,0.0,99,0.00,,,0.17,,2013-06-27 08:52:00,
2013-06-27 05:02:00,69.0,69.0,29.77,West,281,0.0,0.0,99,0.00,,,0.17,,2013-06-27 09:02:00,
2013-06-27 05:11:00,68.0,68.0,29.77,West,281,0.0,0.0,99,0.00,,,0.17,,2013-06-27 09:11:00,
2013-06-27 05:22:00,68.0,68.0,29.77,West,281,0.0,0.0,99,0.00,,,0.17,,2013-06-27 09:22:00,
2013-06-27 05:34:00,68.0,68.0,29.77,West,281,0.0,0.0,99,0.00,,,0.17,,2013-06-27 09:34:00,
2013-06-27 05:43:00,68.0,68.0,29.77,West,281,0.0,0.0,99,0.00,,,0.17,,2013-06-27 09:43:00,
2013-06-27 05:53:00,68.0,68.0,29.78,West,281,0.0,0.0,99,0.00,,,0.17,,2013-06-27 09:53:00,
2013-06-27 06:01:00,68.0,68.0,29.78,West,281,0.0,0.0,99,0.00,,,0.17,,2013-06-27 10:01:00,
2013-06-27 06:11:00,68.0,68.0,29.78,West,281,0.0,0.0,99,0.00,,,0.17,,2013-06-27 10:11:00,
2013-06-27 06:32:00,68.0,68.0,29.78,West,281,0.0,0.0,99,0.00,,,0.17,,2013-06-27 10:32:00,
2013-06-27 06:44:00,69.0,69.0,29.78,West,281,0.0,0.0,99,0.00,,,0.17,,2013-06-27 10:44:00,
2013-06-27 07:02:00,69.0,69.0,29.78,West,281,0.0,0.0,99,0.00,,,0.17,,2013-06-27 11:02:00,
2013-06-27 07:12:00,69.0,69.0,29.78,West,281,0.0,0.0,99,0.00,,,0.17,,2013-06-27 11:12:00,
2013-06-27 07:22:00,69.0,69.0,29.78,West,281,0.0,0.0,99,0.00,,,0.17,,2013-06-27 11:22:00,
2013-06-27 07:33:00,70.0,70.0,29.78,West,281,0.0,0.0,99,0.00,,,0.17,,2013-06-27 11:33:00,
2013-06-27 07:43:00,70.0,70.0,29.78,West,281,0.0,0.0,99,0.00,,,0.17,,2013-06-27 11:43:00,
2013-06-27 07:52:00,70.0,70.0,29.78,West,281,0.0,0.0,99,0.00,,,0.17,,2013-06-27 11:52:00,
2013-06-27 08:02:00,71.0,71.0,29.78,West,281,0.0,0.0,99,0.00,,,0.17,,2013-06-27 12:02:00,
2013-06-27 08:34:00,73.0,72.0,29.76,SSW,198,0.0,0.0,98,0.00,,,0.17,,2013-06-27 12:34:00,
2013-06-27 08:42:00,74.0,73.0,29.76,SSW,197,0.0,0.0,96,0.00,,,0.17,,2013-06-27 12:42:00,
2013-06-27 09:01:00,74.0,72.0,29.76,SSW,197,0.0,0.0,94,0.00,,,0.17,,2013-06-27 13:01:00,
2013-06-27 09:11:00,77.0,74.0,29.76,SSW,197,0.0,0.0,91,0.00,,,0.17,,2013-06-27 13:11:00,
2013-06-27 09:34:00,78.0,74.0,29.76,SE,139,0.0,0.0,87,0.00,,,0.17,,2013-06-27 13:34:00,
2013-06-27 09:43:00,78.0,73.0,29.75,NNE,27,0.0,0.0,85,0.00,,,0.17,,2013-06-27 13:43:00,
2013-06-27 09:52:00,78.0,73.0,29.75,NNE,27,0.0,0.0,85,0.00,,,0.17,,2013-06-27 13:52:00,
2013-06-27 10:02:00,77.0,73.0,29.75,NNE,31,1.0,3.0,87,0.00,,,0.17,,2013-06-27 14:02:00,
2013-06-27 10:12:00,78.0,74.0,29.74,NE,46,0.0,2.0,87,0.00,,,0.17,,2013-06-27 14:12:00,
2013-06-27 10:22:00,78.0,74.0,29.74,NE,46,0.0,2.0,87,0.00,,,0.17,,2013-06-27 14:22:00,
2013-06-27 10:33:00,78.0,73.0,29.73,NE,46,1.0,4.0,84,0.00,,,0.17,,2013-06-27 14:33:00,
2013-06-27 10:43:00,81.0,75.0,29.73,NNW,347,0.0,2.0,82,0.00,,,0.17,,2013-06-27 14:43:00,
2013-06-27 10:52:00,80.0,73.0,29.73,ENE,68,2.0,5.0,80,0.00,,,0.17,,2013-06-27 14:52:00,
2013-06-27 11:22:00,79.0,74.0,29.72,NNE,19,0.0,5.0,84,0.00,,,0.17,,2013-06-27 15:22:00,
2013-06-27 11:33:00,80.0,75.0,29.72,SE,143,0.0,3.0,84,0.00,,,0.17,,2013-06-27 15:33:00,
2013-06-27 12:02:00,79.0,74.0,29.71,SSE,150,1.0,8.0,84,0.00,,,0.17,,2013-06-27 16:02:00,
2013-06-27 12:34:00,81.0,75.0,29.70,East,97,0.0,4.0,81,0.00,,,0.17,,2013-06-27 16:34:00,
2013-06-27 12:43:00,82.0,75.0,29.70,NE,46,2.0,6.0,79,0.00,,,0.17,,2013-06-27 16:43:00,
2013-06-27 12:53:00,82.0,75.0,29.70,NE,46,2.0,6.0,79,0.00,,,0.17,,2013-06-27 16:53:00,
2013-06-27 13:02:00,83.0,75.0,29.68,SSE,147,0.0,4.0,78,0.00,,,0.17,,2013-06-27 17:02:00,
2013-06-27 13:11:00,81.0,74.0,29.68,NE,44,0.0,6.0,80,0.00,,,0.17,,2013-06-27 17:11:00,
2013-06-27 13:22:00,81.0,74.0,29.68,NE,44,0.0,6.0,80,0.00,,,0.17,,2013-06-27 17:22:00,
2013-06-27 13:33:00,81.0,74.0,29.68,ENE,74,0.0,6.0,79,0.00,,,0.17,,2013-06-27 17:33:00,
2013-06-27 13:43:00,82.0,75.0,29.67,NNE,16,2.0,5.0,80,0.00,,,0.17,,2013-06-27 17:43:00,
2013-06-27 13:53:00,82.0,75.0,29.67,NNE,16,2.0,5.0,80,0.00,,,0.17,,2013-06-27 17:53:00,
2013-06-27 14:01:00,82.0,75.0,29.67,NE,49,2.0,8.0,80,0.00,,,0.17,,2013-06-27 18:01:00,
2013-06-27 14:32:00,84.0,76.0,29.65,ESE,113,1.0,9.0,78,0.00,,,0.17,,2013-06-27 18:32:00,
2013-06-27 14:44:00,83.0,76.0,29.64,SE,131,0.0,5.0,79,0.00,,,0.17,,2013-06-27 18:44:00,
2013-06-27 14:52:00,83.0,76.0,29.64,SE,131,0.0,5.0,79,0.00,,,0.17,,2013-06-27 18:52:00,
2013-06-27 15:01:00,82.0,76.0,29.64,NNE,27,0.0,4.0,81,0.00,,,0.17,,2013-06-27 19:01:00,
2013-06-27 15:11:00,83.0,76.0,29.63,North,6,1.0,5.0,79,0.00,,,0.17,,2013-06-27 19:11:00,
2013-06-27 15:23:00,83.0,76.0,29.63,North,6,1.0,5.0,79,0.00,,,0.17,,2013-06-27 19:23:00,
2013-06-27 15:34:00,82.0,76.0,29.62,ESE,102,0.0,7.0,81,0.00,,,0.17,,2013-06-27 19:34:00,
2013-06-27 15:42:00,81.0,76.0,29.62,SSW,208,0.0,4.0,84,0.00,,,0.17,,2013-06-27 19:42:00,
2013-06-27 15:53:00,81.0,75.0,29.62,NE,49,0.0,2.0,81,0.00,,,0.17,,2013-06-27 19:53:00,
2013-06-27 16:02:00,81.0,75.0,29.62,NE,49,0.0,2.0,81,0.00,,,0.17,,2013-06-27 20:02:00,
2013-06-27 16:11:00,81.0,74.0,29.60,SE,128,0.0,5.0,80,0.00,,,0.17,,2013-06-27 20:11:00,
2013-06-27 16:38:00,79.0,73.0,29.60,NE,39,0.0,3.0,82,0.00,,,0.17,,2013-06-27 20:38:00,
2013-06-27 16:47:00,79.0,73.0,29.60,SE,145,0.0,4.0,83,0.00,,,0.17,,2013-06-27 20:47:00,
2013-06-27 16:54:00,78.0,73.0,29.60,NW,311,0.0,4.0,85,0.03,,,0.20,,2013-06-27 20:54:00,
2013-06-27 17:06:00,78.0,73.0,29.60,NW,311,0.0,4.0,85,0.03,,,0.20,,2013-06-27 21:06:00,
2013-06-27 17:16:00,75.0,72.0,29.59,NE,56,0.0,2.0,91,0.07,,,0.24,,2013-06-27 21:16:00,
2013-06-27 17:25:00,75.0,72.0,29.59,NE,56,0.0,2.0,91,0.07,,,0.24,,2013-06-27 21:25:00,
2013-06-27 17:36:00,75.0,73.0,29.59,SE,142,0.0,2.0,94,0.07,,,0.24,,2013-06-27 21:36:00,
2013-06-27 17:48:00,75.0,73.0,29.58,North,358,1.0,6.0,93,0.07,,,0.24,,2013-06-27 21:48:00,
2013-06-27 17:53:00,75.0,73.0,29.57,ENE,77,0.0,2.0,93,0.04,,,0.24,,2013-06-27 21:53:00,
2013-06-27 18:06:00,75.0,73.0,29.57,ENE,77,0.0,2.0,93,0.04,,,0.24,,2013-06-27 22:06:00,
2013-06-27 18:16:00,76.0,74.0,29.59,ESE,118,0.0,2.0,92,0.00,,,0.24,,2013-06-27 22:16:00,
2013-06-27 18:25:00,76.0,74.0,29.59,ESE,118,0.0,2.0,92,0.00,,,0.24,,2013-06-27 22:25:00,
2013-06-27 18:35:00,76.0,74.0,29.59,NE,54,0.0,3.0,92,0.00,,,0.24,,2013-06-27 22:35:00,
2013-06-27 18:48:00,77.0,74.0,29.59,SSE,162,0.0,1.0,91,0.00,,,0.24,,2013-06-27 22:48:00,
2013-06-27 19:07:00,77.0,74.0,29.59,SE,131,0.0,6.0,90,0.00,,,0.24,,2013-06-27 23:07:00,
2013-06-27 19:17:00,77.0,74.0,29.59,SE,124,0.0,0.0,91,0.00,,,0.24,,2013-06-27 23:17:00,
2013-06-27 19:36:00,77.0,74.0,29.60,SE,143,0.0,2.0,90,0.00,,,0.24,,2013-06-27 23:36:00,
2013-06-27 19:55:00,76.0,73.0,29.60,SSE,159,0.0,1.0,91,0.00,,,0.24,,2013-06-27 23:55:00,
2013-06-27 20:07:00,76.0,73.0,29.60,SSE,159,0.0,1.0,91,0.00,,,0.24,,2013-06-28 00:07:00,
2013-06-27 20:16:00,76.0,74.0,29.60,ESE,113,0.0,1.0,92,0.00,,,0.24,,2013-06-28 00:16:00,
2013-06-27 20:30:00,76.0,74.0,29.60,ESE,113,0.0,1.0,92,0.00,,,0.24,,2013-06-28 00:30:00,
2013-06-27 20:36:00,75.0,73.0,29.60,NW,310,0.0,3.0,92,0.00,,,0.24,,2013-06-28 00:36:00,
2013-06-27 20:45:00,75.0,73.0,29.60,NNE,27,0.0,1.0,92,0.00,,,0.24,,2013-06-28 00:45:00,
2013-06-27 20:54:00,75.0,73.0,29.60,NNW,339,0.0,2.0,93,0.00,,,0.24,,2013-06-28 00:54:00,
2013-06-27 21:09:00,75.0,73.0,29.60,NNW,339,0.0,2.0,93,0.00,,,0.24,,2013-06-28 01:09:00,
2013-06-27 21:26:00,74.0,72.0,29.61,NNW,339,0.0,1.0,93,0.00,,,0.24,,2013-06-28 01:26:00,
2013-06-27 21:36:00,74.0,72.0,29.61,NNW,339,0.0,0.0,94,0.00,,,0.24,,2013-06-28 01:36:00,
2013-06-27 21:47:00,74.0,72.0,29.62,NNW,339,0.0,1.0,95,0.00,,,0.24,,2013-06-28 01:47:00,
2013-06-27 21:56:00,74.0,72.0,29.62,NNW,339,0.0,1.0,95,0.00,,,0.24,,2013-06-28 01:56:00,
2013-06-27 22:07:00,74.0,72.0,29.62,North,359,0.0,3.0,93,0.00,,,0.24,,2013-06-28 02:07:00,
2013-06-27 22:49:00,75.0,72.0,29.63,SSE,159,0.0,2.0,89,0.00,,,0.14,,2013-06-28 02:49:00,
2013-06-27 23:07:00,74.0,71.0,29.62,NNE,16,0.0,2.0,90,0.00,,,0.14,,2013-06-28 03:07:00,
2013-06-27 23:38:00,73.0,71.0,29.61,ENE,57,0.0,0.0,92,0.00,,,0.07,,2013-06-28 03:38:00,
2013-06-27 23:45:00,73.0,71.0,29.61,South,190,0.0,1.0,93,0.00,,,0.07,,2013-06-28 03:45:00,
2013-06-27 23:55:00,73.0,71.0,29.61,South,190,0.0,1.0,93,0.00,,,0.07,,2013-06-28 03:55:00,